createdAt,value
2023-05-24T00:02:08.082Z,1.50
2023-05-24T00:04:34.860Z,1.30
2023-05-24T00:07:04.764Z,1.40
2023-05-24T00:09:31.360Z,1.60
2023-05-24T00:11:57.925Z,1.50
2023-05-24T00:14:24.925Z,1.38
2023-05-24T00:16:51.636Z,1.42
2023-05-24T00:19:18.590Z,1.40
2023-05-24T00:21:46.063Z,1.90
2023-05-24T00:24:12.738Z,1.70
2023-05-24T00:26:39.480Z,1.40
2023-05-24T00:29:06.201Z,1.65
2023-05-24T00:31:32.818Z,1.35
2023-05-24T00:33:59.478Z,1.40
2023-05-24T00:36:26.063Z,1.55
2023-05-24T00:38:55.503Z,1.67
2023-05-24T00:41:22.145Z,1.67
2023-05-24T00:43:48.806Z,2.00
2023-05-24T00:46:18.028Z,1.40
2023-05-24T00:48:45.055Z,1.58
2023-05-24T00:51:12.263Z,1.50
2023-05-24T00:53:40.081Z,1.70
2023-05-24T00:56:07.243Z,1.42
2023-05-24T00:58:34.061Z,1.73
2023-05-24T01:01:01.737Z,1.83
2023-05-24T01:03:31.992Z,1.60
2023-05-24T01:05:59.443Z,1.77
2023-05-24T01:08:26.379Z,1.30
2023-05-24T01:10:52.915Z,1.40
2023-05-24T01:13:31.942Z,1.55
2023-05-24T01:16:00.709Z,1.80
2023-05-24T01:18:31.685Z,1.90
2023-05-24T01:21:11.747Z,1.65
2023-05-24T01:23:58.441Z,1.48
2023-05-24T01:26:31.870Z,1.70
2023-05-24T01:29:00.041Z,1.90
2023-05-24T01:31:26.722Z,1.58
2023-05-24T01:33:53.399Z,1.83
2023-05-24T01:36:20.059Z,1.73
2023-05-24T01:38:46.954Z,1.70
2023-05-24T01:41:18.341Z,1.67
2023-05-24T01:43:49.128Z,1.75
2023-05-24T01:46:36.305Z,1.63
2023-05-24T01:49:17.732Z,1.90
2023-05-24T01:51:48.606Z,1.70
2023-05-24T01:54:16.367Z,1.70
2023-05-24T01:56:44.525Z,1.58
2023-05-24T01:59:12.027Z,1.83
2023-05-24T02:01:38.843Z,2.00
2023-05-24T02:04:05.496Z,1.98
2023-05-24T02:06:32.776Z,2.00
2023-05-24T02:08:59.365Z,2.22
2023-05-24T02:11:26.113Z,2.10
2023-05-24T02:13:53.884Z,1.98
2023-05-24T02:16:20.484Z,2.08
2023-05-24T02:18:47.920Z,2.05
2023-05-24T02:21:14.484Z,1.65
2023-05-24T02:23:41.072Z,1.90
2023-05-24T02:26:07.697Z,2.40
2023-05-24T02:28:34.294Z,1.77
2023-05-24T02:31:01.242Z,1.75
2023-05-24T02:33:29.874Z,2.03
2023-05-24T02:35:56.668Z,2.15
2023-05-24T02:38:23.181Z,1.80
2023-05-24T02:40:49.768Z,2.10
2023-05-24T02:43:16.257Z,1.98
2023-05-24T02:45:43.026Z,2.17
2023-05-24T02:48:10.890Z,1.98
2023-05-24T02:50:37.695Z,2.08
2023-05-24T02:53:04.277Z,1.75
2023-05-24T02:55:32.329Z,2.00
2023-05-24T02:57:59.575Z,1.75
2023-05-24T03:00:26.309Z,2.20
2023-05-24T03:02:55.611Z,1.67
2023-05-24T03:05:22.324Z,1.67
2023-05-24T03:07:49.270Z,2.00
2023-05-24T03:10:16.290Z,2.10
2023-05-24T03:12:43.155Z,2.38
2023-05-24T03:15:10.221Z,2.58
2023-05-24T03:17:36.860Z,2.15
2023-05-24T03:20:05.761Z,2.42
2023-05-24T03:22:32.719Z,2.03
2023-05-24T03:25:00.092Z,2.63
2023-05-24T03:27:26.640Z,2.67
2023-05-24T03:29:54.123Z,2.58
2023-05-24T03:32:23.815Z,2.75
2023-05-24T03:34:50.954Z,2.75
2023-05-24T03:37:17.680Z,2.55
2023-05-24T03:39:45.525Z,2.83
2023-05-24T03:42:32.351Z,2.70
2023-05-24T03:44:58.886Z,2.60
2023-05-24T03:47:25.508Z,2.58
2023-05-24T03:49:52.024Z,3.03
2023-05-24T03:52:18.626Z,2.83
2023-05-24T03:54:46.060Z,2.17
2023-05-24T03:57:12.742Z,2.75
2023-05-24T03:59:41.087Z,2.35
2023-05-24T04:02:08.323Z,2.55
2023-05-24T04:04:35.121Z,2.60
2023-05-24T04:07:01.635Z,2.60
2023-05-24T04:09:28.186Z,2.45
2023-05-24T04:11:55.598Z,2.42
2023-05-24T04:14:22.170Z,3.03
2023-05-24T04:16:48.906Z,2.42
2023-05-24T04:19:15.980Z,2.92
2023-05-24T04:21:42.492Z,2.72
2023-05-24T04:24:09.475Z,2.80
2023-05-24T04:26:37.584Z,2.78
2023-05-24T04:29:04.403Z,2.75
2023-05-24T04:31:33.373Z,2.42
2023-05-24T04:34:00.150Z,2.67
2023-05-24T04:36:26.824Z,2.42
2023-05-24T04:38:56.127Z,2.45
2023-05-24T04:41:22.765Z,3.05
2023-05-24T04:43:50.420Z,3.17
2023-05-24T04:46:17.146Z,2.78
2023-05-24T04:48:43.723Z,2.63
2023-05-24T04:51:10.338Z,3.17
2023-05-24T04:53:38.602Z,3.22
2023-05-24T04:56:05.284Z,3.20
2023-05-24T04:58:31.896Z,3.33
2023-05-24T05:00:58.491Z,3.35
2023-05-24T05:03:25.149Z,3.10
2023-05-24T05:05:51.826Z,3.63
2023-05-24T05:08:23.543Z,3.70
2023-05-24T05:10:50.968Z,3.72
2023-05-24T05:13:17.484Z,3.38
2023-05-24T05:15:44.564Z,3.72
2023-05-24T05:18:11.160Z,4.38
2023-05-24T05:20:37.819Z,4.00
2023-05-24T05:23:04.557Z,4.10
2023-05-24T05:25:32.390Z,3.72
2023-05-24T05:27:58.907Z,4.10
2023-05-24T05:30:25.761Z,3.85
2023-05-24T05:32:52.491Z,4.10
2023-05-24T05:35:21.376Z,3.47
2023-05-24T05:37:47.940Z,3.67
2023-05-24T05:40:14.483Z,3.55
2023-05-24T05:42:41.244Z,4.05
2023-05-24T05:45:08.169Z,3.80
2023-05-24T05:47:36.384Z,4.07
2023-05-24T05:50:03.513Z,3.20
2023-05-24T05:52:32.231Z,3.65
2023-05-24T05:55:00.192Z,3.70
2023-05-24T05:57:26.853Z,3.60
2023-05-24T05:59:54.865Z,3.33
2023-05-24T06:02:24.204Z,3.72
2023-05-24T06:04:51.168Z,3.55
2023-05-24T06:07:17.856Z,3.22
2023-05-24T06:09:44.358Z,3.58
2023-05-24T06:12:11.001Z,3.60
2023-05-24T06:14:38.493Z,3.53
2023-05-24T06:17:05.768Z,3.38
2023-05-24T06:19:33.262Z,3.17
2023-05-24T06:21:59.972Z,3.60
2023-05-24T06:24:28.580Z,4.00
2023-05-24T06:26:55.113Z,3.45
2023-05-24T06:29:22.253Z,3.20
2023-05-24T06:31:49.582Z,3.33
2023-05-24T06:34:17.782Z,3.95
2023-05-24T06:36:46.249Z,3.65
2023-05-24T06:39:13.648Z,3.45
2023-05-24T06:41:41.151Z,4.10
2023-05-24T06:44:07.806Z,4.07
2023-05-24T06:46:34.380Z,3.33
2023-05-24T06:49:01.103Z,3.38
2023-05-24T06:51:27.653Z,3.30
2023-05-24T06:53:54.342Z,3.50
2023-05-24T06:56:23.222Z,3.40
2023-05-24T06:58:49.759Z,3.90
2023-05-24T07:01:17.050Z,2.80
2023-05-24T07:03:43.720Z,3.35
2023-05-24T07:06:14.048Z,3.20
2023-05-24T07:08:41.952Z,3.45
2023-05-24T07:11:09.559Z,3.95
2023-05-24T07:13:36.211Z,3.80
2023-05-24T07:16:02.726Z,3.92
2023-05-24T07:18:29.928Z,4.68
2023-05-24T07:21:03.756Z,5.78
2023-05-24T07:23:30.317Z,4.65
2023-05-24T07:25:57.307Z,4.38
2023-05-24T07:28:23.850Z,3.38
2023-05-24T07:30:51.151Z,3.15
2023-05-24T07:33:18.019Z,4.30
2023-05-24T07:35:48.548Z,3.60
2023-05-24T07:38:21.192Z,4.00
2023-05-24T07:40:48.249Z,4.10
2023-05-24T07:43:15.732Z,4.65
2023-05-24T07:45:42.707Z,4.45
2023-05-24T07:48:09.589Z,4.55
2023-05-24T07:50:36.273Z,4.45
2023-05-24T07:53:02.922Z,5.00
2023-05-24T07:55:29.466Z,6.50
2023-05-24T07:57:56.793Z,6.43
2023-05-24T08:00:23.558Z,8.05
2023-05-24T08:02:50.501Z,7.28
2023-05-24T08:05:26.224Z,7.20
2023-05-24T08:07:53.711Z,7.60
2023-05-24T08:10:20.366Z,7.20
2023-05-24T08:12:46.968Z,6.80
2023-05-24T08:15:13.675Z,5.80
2023-05-24T08:17:43.481Z,5.85
2023-05-24T08:20:10.257Z,6.72
2023-05-24T08:22:37.773Z,6.13
2023-05-24T08:25:04.806Z,7.22
2023-05-24T08:27:31.903Z,8.20
2023-05-24T08:29:58.693Z,7.93
2023-05-24T08:32:25.854Z,6.10
2023-05-24T08:35:00.385Z,5.65
2023-05-24T08:37:32.651Z,5.75
2023-05-24T08:39:59.347Z,5.38
2023-05-24T08:42:26.556Z,5.80
2023-05-24T08:44:53.912Z,6.20
2023-05-24T08:47:27.192Z,6.10
2023-05-24T08:49:53.942Z,6.25
2023-05-24T08:52:22.707Z,6.70
2023-05-24T08:54:50.166Z,6.15
2023-05-24T08:57:18.125Z,6.88
2023-05-24T08:59:44.917Z,5.55
2023-05-24T09:02:14.131Z,5.35
2023-05-24T09:04:42.774Z,5.45
2023-05-24T09:07:09.402Z,6.38
2023-05-24T09:09:37.361Z,6.47
2023-05-24T09:12:08.538Z,6.80
2023-05-24T09:14:35.117Z,5.78
2023-05-24T09:17:02.356Z,6.65
2023-05-24T09:19:29.174Z,6.53
2023-05-24T09:21:56.187Z,6.63
2023-05-24T09:24:23.314Z,6.20
2023-05-24T09:26:51.170Z,6.35
2023-05-24T09:29:21.857Z,5.43
2023-05-24T09:31:48.515Z,4.95
2023-05-24T09:34:16.738Z,5.45
2023-05-24T09:36:50.514Z,4.65
2023-05-24T09:39:20.563Z,4.80
2023-05-24T09:41:56.291Z,4.00
2023-05-24T09:44:28.780Z,4.35
2023-05-24T09:47:02.116Z,4.95
2023-05-24T09:49:35.976Z,3.83
2023-05-24T09:52:03.285Z,4.13
2023-05-24T09:54:31.828Z,4.00
2023-05-24T09:57:02.567Z,4.05
2023-05-24T09:59:34.478Z,3.90
2023-05-24T10:02:10.957Z,4.25
2023-05-24T10:04:38.835Z,3.80
2023-05-24T10:07:09.053Z,3.97
2023-05-24T10:09:36.725Z,3.88
2023-05-24T10:12:06.694Z,4.03
2023-05-24T10:14:36.239Z,4.15
2023-05-24T10:17:06.522Z,4.82
2023-05-24T10:19:33.393Z,3.47
2023-05-24T10:22:01.378Z,3.22
2023-05-24T10:24:33.035Z,4.05
2023-05-24T10:27:01.004Z,4.28
2023-05-24T10:29:45.936Z,3.80
2023-05-24T10:32:16.946Z,4.10
2023-05-24T10:34:44.670Z,3.75
2023-05-24T10:37:11.314Z,3.80
2023-05-24T10:39:37.998Z,3.88
2023-05-24T10:42:06.669Z,3.47
2023-05-24T10:44:35.380Z,3.00
2023-05-24T10:47:03.690Z,2.55
2023-05-24T10:49:31.365Z,3.63
2023-05-24T10:52:02.777Z,2.85
2023-05-24T10:54:29.385Z,2.85
2023-05-24T10:57:01.828Z,2.97
2023-05-24T10:59:30.803Z,3.05
2023-05-24T11:02:00.914Z,3.70
2023-05-24T11:04:31.117Z,3.58
2023-05-24T11:07:01.691Z,2.75
2023-05-24T11:09:28.508Z,3.30
2023-05-24T11:11:58.477Z,2.88
2023-05-24T11:14:27.528Z,3.15
2023-05-24T11:16:54.497Z,3.83
2023-05-24T11:19:29.108Z,4.20
2023-05-24T11:21:59.189Z,3.17
2023-05-24T11:24:26.946Z,3.60
2023-05-24T11:26:54.114Z,3.75
2023-05-24T11:29:23.189Z,3.20
2023-05-24T11:31:52.883Z,3.40
2023-05-24T11:34:23.901Z,3.15
2023-05-24T11:36:52.263Z,3.83
2023-05-24T11:39:20.729Z,3.95
2023-05-24T11:41:47.502Z,4.53
2023-05-24T11:44:17.967Z,3.95
2023-05-24T11:46:45.158Z,4.85
2023-05-24T11:49:19.439Z,4.43
2023-05-24T11:51:46.059Z,3.72
2023-05-24T11:54:12.654Z,4.25
2023-05-24T11:56:40.108Z,4.30
2023-05-24T11:59:17.619Z,3.15
2023-05-24T12:01:44.884Z,2.53
2023-05-24T12:04:12.307Z,2.83
2023-05-24T12:06:40.648Z,2.30
2023-05-24T12:09:08.875Z,2.67
2023-05-24T12:11:38.267Z,2.63
2023-05-24T12:14:05.326Z,1.90
2023-05-24T12:16:33.347Z,2.00
2023-05-24T12:19:07.089Z,1.88
2023-05-24T12:21:41.145Z,2.13
2023-05-24T12:24:15.488Z,2.17
2023-05-24T12:26:47.241Z,1.67
2023-05-24T12:29:14.853Z,2.08
2023-05-24T12:31:42.601Z,2.20
2023-05-24T12:34:19.093Z,2.28
2023-05-24T12:36:46.929Z,2.75
2023-05-24T12:39:35.237Z,2.67
2023-05-24T12:42:07.227Z,3.10
2023-05-24T12:44:38.118Z,2.90
2023-05-24T12:47:05.579Z,3.00
2023-05-24T12:49:32.555Z,2.45
2023-05-24T12:51:59.130Z,2.22
2023-05-24T12:54:26.672Z,2.58
2023-05-24T12:56:55.819Z,2.60
2023-05-24T12:59:23.440Z,2.63
2023-05-24T13:01:52.606Z,2.30
2023-05-24T13:04:21.049Z,3.05
2023-05-24T13:06:48.290Z,3.92
2023-05-24T13:09:25.606Z,3.80
2023-05-24T13:11:53.063Z,3.38
2023-05-24T13:14:20.016Z,2.78
2023-05-24T13:16:47.040Z,3.28
2023-05-24T13:19:13.851Z,2.40
2023-05-24T13:21:42.571Z,2.45
2023-05-24T13:24:13.372Z,2.83
2023-05-24T13:26:40.227Z,2.40
2023-05-24T13:29:32.288Z,2.88
2023-05-24T13:31:54.180Z,2.60
2023-05-24T13:34:20.978Z,2.50
2023-05-24T13:36:49.932Z,2.75
2023-05-24T13:39:16.802Z,2.30
2023-05-24T13:41:44.474Z,1.90
2023-05-24T13:44:15.675Z,1.85
2023-05-24T13:46:42.990Z,1.90
2023-05-24T13:49:10.862Z,2.20
2023-05-24T13:51:37.924Z,2.53
2023-05-24T13:54:07.858Z,2.05
2023-05-24T13:56:36.591Z,2.83
2023-05-24T13:59:04.533Z,2.35
2023-05-24T14:01:32.244Z,1.92
2023-05-24T14:03:59.662Z,1.83
2023-05-24T14:06:26.157Z,2.72
2023-05-24T14:08:52.739Z,2.40
2023-05-24T14:11:19.786Z,2.65
2023-05-24T14:16:19.139Z,2.38
2023-05-24T14:18:48.890Z,2.33
2023-05-24T14:21:15.910Z,2.17
2023-05-24T14:23:42.401Z,2.50
2023-05-24T14:26:08.934Z,2.50
2023-05-24T14:28:35.791Z,2.20
2023-05-24T14:31:02.609Z,2.55
2023-05-24T14:33:29.226Z,2.78
2023-05-24T14:35:55.932Z,2.60
2023-05-24T14:38:24.017Z,2.97
2023-05-24T14:40:51.284Z,2.78
2023-05-24T14:43:18.034Z,2.35
2023-05-24T14:45:45.255Z,2.65
2023-05-24T14:48:12.671Z,2.30
2023-05-24T14:50:41.387Z,2.53
2023-05-24T14:53:14.380Z,2.58
2023-05-24T14:55:43.432Z,2.67
2023-05-24T14:58:14.188Z,2.80
2023-05-24T15:00:41.914Z,2.70
2023-05-24T15:03:09.074Z,2.80
2023-05-24T15:05:36.262Z,2.30
2023-05-24T15:08:03.327Z,2.35
2023-05-24T15:10:32.150Z,2.30
2023-05-24T15:12:58.834Z,2.50
2023-05-24T15:15:25.632Z,2.70
2023-05-24T15:17:53.619Z,2.67
2023-05-24T15:20:20.860Z,2.58
2023-05-24T15:22:47.450Z,2.35
2023-05-24T15:25:14.517Z,2.30
2023-05-24T15:27:41.181Z,2.63
2023-05-24T15:30:09.563Z,2.50
2023-05-24T15:32:36.297Z,2.45
2023-05-24T15:35:02.910Z,2.88
2023-05-24T15:37:30.016Z,2.80
2023-05-24T15:39:56.615Z,2.60
2023-05-24T15:42:24.821Z,2.40
2023-05-24T15:44:51.846Z,2.30
2023-05-24T15:47:21.251Z,2.30
2023-05-24T15:49:50.129Z,3.00
2023-05-24T15:52:16.802Z,2.20
2023-05-24T15:54:43.722Z,2.65
2023-05-24T15:57:10.886Z,2.30
2023-05-24T15:59:38.612Z,2.60
2023-05-24T16:02:08.576Z,2.60
2023-05-24T16:04:35.907Z,2.90
2023-05-24T16:07:03.905Z,2.60
2023-05-24T16:09:30.689Z,2.97
2023-05-24T16:11:57.434Z,2.80
2023-05-24T16:14:24.716Z,2.85
2023-05-24T16:16:51.867Z,2.90
2023-05-24T16:19:18.634Z,3.60
2023-05-24T16:21:45.386Z,3.30
2023-05-24T16:24:11.999Z,2.90
2023-05-24T16:26:38.599Z,3.45
2023-05-24T16:29:06.978Z,3.15
2023-05-24T16:31:33.669Z,3.22
2023-05-24T16:34:02.952Z,2.75
2023-05-24T16:36:31.586Z,3.20
2023-05-24T16:38:59.011Z,3.22
2023-05-24T16:41:27.336Z,3.55
2023-05-24T16:43:54.142Z,3.03
2023-05-24T16:46:21.258Z,3.65
2023-05-24T16:48:47.996Z,3.58
2023-05-24T16:51:16.443Z,3.30
2023-05-24T16:53:43.572Z,3.50
2023-05-24T16:56:10.211Z,3.83
2023-05-24T16:58:38.342Z,3.17
2023-05-24T17:01:05.164Z,3.78
2023-05-24T17:03:34.207Z,3.42
2023-05-24T17:06:03.869Z,3.40
2023-05-24T17:08:56.518Z,3.83
2023-05-24T17:11:25.771Z,3.60
2023-05-24T17:13:52.329Z,4.25
2023-05-24T17:16:19.234Z,3.42
2023-05-24T17:18:45.968Z,3.90
2023-05-24T17:21:12.864Z,4.32
2023-05-24T17:23:40.993Z,4.10
2023-05-24T17:26:11.441Z,3.17
2023-05-24T17:28:37.991Z,4.43
2023-05-24T17:31:04.638Z,3.78
2023-05-24T17:33:32.024Z,4.45
2023-05-24T17:36:02.696Z,4.03
2023-05-24T17:38:29.414Z,3.95
2023-05-24T17:40:59.222Z,4.00
2023-05-24T17:43:31.704Z,4.00
2023-05-24T17:46:07.976Z,4.00
2023-05-24T17:48:38.218Z,4.00
2023-05-24T17:51:06.028Z,4.05
2023-05-24T17:53:34.722Z,3.28
2023-05-24T17:56:02.062Z,3.58
2023-05-24T17:58:35.953Z,3.40
2023-05-24T18:01:07.006Z,3.42
2023-05-24T18:03:36.564Z,3.38
2023-05-24T18:06:07.022Z,3.20
2023-05-24T18:08:38.688Z,3.58
2023-05-24T18:11:08.653Z,3.15
2023-05-24T18:13:36.865Z,3.95
2023-05-24T18:16:03.457Z,3.40
2023-05-24T18:18:33.111Z,2.83
2023-05-24T18:20:59.977Z,3.10
2023-05-24T18:23:26.911Z,3.72
2023-05-24T18:26:00.890Z,3.70
2023-05-24T18:28:29.947Z,3.10
2023-05-24T18:30:56.675Z,3.30
2023-05-24T18:33:23.454Z,3.00
2023-05-24T18:35:50.388Z,3.88
2023-05-24T18:38:17.000Z,3.17
2023-05-24T18:40:44.873Z,3.50
2023-05-24T18:43:11.483Z,3.50
2023-05-24T18:45:38.085Z,3.55
2023-05-24T18:48:09.405Z,3.50
2023-05-24T18:50:35.880Z,3.38
2023-05-24T18:53:02.598Z,3.00
2023-05-24T18:55:29.178Z,3.75
2023-05-24T18:57:56.081Z,3.65
2023-05-24T19:00:23.027Z,3.22
2023-05-24T19:02:49.917Z,3.30
2023-05-24T19:05:17.205Z,3.28
2023-05-24T19:07:43.795Z,3.72
2023-05-24T19:10:10.470Z,4.10
2023-05-24T19:12:37.223Z,3.38
2023-05-24T19:15:04.051Z,3.00
2023-05-24T19:17:30.649Z,3.58
2023-05-24T19:19:57.254Z,3.20
2023-05-24T19:22:26.088Z,3.55
2023-05-24T19:24:52.751Z,3.80
2023-05-24T19:27:19.658Z,3.60
2023-05-24T19:29:46.146Z,3.67
2023-05-24T19:32:13.097Z,3.50
2023-05-24T19:34:42.249Z,3.88
2023-05-24T19:37:09.513Z,3.95
2023-05-24T19:39:36.977Z,3.95
2023-05-24T19:42:04.053Z,3.50
2023-05-24T19:44:31.050Z,3.83
2023-05-24T19:46:57.594Z,3.88
2023-05-24T19:49:24.283Z,4.03
2023-05-24T19:51:50.774Z,3.55
2023-05-24T19:54:17.434Z,3.92
2023-05-24T19:56:44.208Z,4.05
2023-05-24T19:59:10.731Z,3.88
2023-05-24T20:01:37.402Z,3.65
2023-05-24T20:04:04.292Z,3.72
2023-05-24T20:06:31.459Z,3.92
2023-05-24T20:08:59.804Z,3.50
2023-05-24T20:11:26.685Z,3.50
2023-05-24T20:13:53.434Z,3.30
2023-05-24T20:16:20.000Z,3.65
2023-05-24T20:18:46.829Z,4.13
2023-05-24T20:21:15.071Z,3.63
2023-05-24T20:23:41.688Z,3.75
2023-05-24T20:26:08.229Z,3.45
2023-05-24T20:28:34.832Z,3.92
2023-05-24T20:31:01.693Z,3.90
2023-05-24T20:33:28.244Z,3.70
2023-05-24T20:35:54.776Z,3.53
2023-05-24T20:38:22.077Z,3.90
2023-05-24T20:40:48.884Z,4.13
2023-05-24T20:43:15.800Z,4.28
2023-05-24T20:45:42.582Z,3.78
2023-05-24T20:48:09.348Z,4.25
2023-05-24T20:50:36.409Z,4.25
2023-05-24T20:53:03.137Z,4.18
2023-05-24T20:55:29.807Z,4.05
2023-05-24T20:57:56.443Z,3.80
2023-05-24T21:00:22.978Z,4.10
2023-05-24T21:02:49.590Z,3.97
2023-05-24T21:05:16.448Z,3.88
2023-05-24T21:07:42.979Z,4.45
2023-05-24T21:10:11.269Z,4.50
2023-05-24T21:12:37.910Z,4.70
2023-05-24T21:15:04.753Z,5.13
2023-05-24T21:17:31.339Z,4.75
2023-05-24T21:19:57.947Z,4.50
2023-05-24T21:22:24.467Z,4.43
2023-05-24T21:24:51.017Z,4.72
2023-05-24T21:27:18.244Z,4.60
2023-05-24T21:29:44.802Z,4.53
2023-05-24T21:32:11.416Z,5.22
2023-05-24T21:34:37.983Z,5.57
2023-05-24T21:37:05.227Z,5.00
2023-05-24T21:39:32.503Z,5.15
2023-05-24T21:41:59.056Z,5.60
2023-05-24T21:44:25.797Z,4.95
2023-05-24T21:46:52.437Z,5.72
2023-05-24T21:49:20.063Z,5.40
2023-05-24T21:51:46.673Z,4.93
2023-05-24T21:54:13.194Z,4.88
2023-05-24T21:56:39.737Z,5.20
2023-05-24T21:59:06.283Z,5.47
2023-05-24T22:01:32.845Z,5.00
2023-05-24T22:03:59.651Z,5.15
2023-05-24T22:06:26.231Z,5.10
2023-05-24T22:08:52.793Z,4.93
2023-05-24T22:11:19.359Z,4.88
2023-05-24T22:13:46.416Z,5.78
2023-05-24T22:16:13.186Z,5.18
2023-05-24T22:18:40.270Z,5.15
2023-05-24T22:21:06.847Z,5.53
2023-05-24T22:23:33.424Z,5.82
2023-05-24T22:26:00.205Z,5.40
2023-05-24T22:28:26.731Z,5.80
2023-05-24T22:30:53.342Z,5.65
2023-05-24T22:33:20.221Z,6.03
2023-05-24T22:35:46.834Z,5.75
2023-05-24T22:38:13.435Z,5.47
2023-05-24T22:40:42.393Z,6.38
2023-05-24T22:43:09.267Z,5.63
2023-05-24T22:45:36.054Z,5.55
2023-05-24T22:48:03.664Z,6.15
2023-05-24T22:50:30.539Z,5.45
2023-05-24T22:52:58.873Z,6.00
2023-05-24T22:55:25.491Z,5.70
2023-05-24T22:57:52.015Z,5.85
2023-05-24T23:00:18.852Z,6.03
2023-05-24T23:02:46.816Z,6.40
2023-05-24T23:05:13.699Z,6.38
2023-05-24T23:07:40.416Z,6.93
2023-05-24T23:10:08.038Z,6.05
2023-05-24T23:12:35.784Z,6.00
2023-05-24T23:15:02.360Z,6.82
2023-05-24T23:17:28.972Z,7.60
2023-05-24T23:19:55.601Z,7.25
2023-05-24T23:22:24.111Z,7.05
2023-05-24T23:24:50.984Z,7.07
2023-05-24T23:27:20.437Z,7.40
2023-05-24T23:29:46.905Z,6.75
2023-05-24T23:32:13.490Z,7.00
2023-05-24T23:34:40.169Z,7.32
2023-05-24T23:37:06.817Z,7.85
2023-05-24T23:39:33.440Z,7.55
2023-05-24T23:41:59.971Z,7.07
2023-05-24T23:44:26.551Z,7.38
2023-05-24T23:46:53.186Z,7.30
2023-05-24T23:49:20.009Z,7.00
2023-05-24T23:51:46.808Z,7.10
2023-05-24T23:54:14.815Z,6.97
2023-05-24T23:56:42.828Z,6.72
2023-05-24T23:59:10.518Z,7.18
